createdAt,value
2017-02-17T00:00:01.707Z,1023.3
2017-02-17T00:01:11.033Z,1023.29
2017-02-17T00:02:20.057Z,1023.29
2017-02-17T00:03:29.810Z,1023.24
2017-02-17T00:04:39.549Z,1023.2
2017-02-17T00:05:49.312Z,1023.19
2017-02-17T00:06:59.464Z,1023.15
2017-02-17T00:08:08.817Z,1023.15
2017-02-17T00:09:18.149Z,1023.18
2017-02-17T00:10:27.081Z,1023.13
2017-02-17T00:11:36.427Z,1023.19
2017-02-17T00:12:45.756Z,1023.17
2017-02-17T00:13:55.393Z,1023.23
2017-02-17T00:15:05.150Z,1023.17
2017-02-17T00:16:14.065Z,1023.2
2017-02-17T00:17:23.399Z,1023.17
2017-02-17T00:18:32.742Z,1023.12
2017-02-17T00:19:42.303Z,1023.11
2017-02-17T00:20:52.076Z,1023.05
2017-02-17T00:22:01.028Z,1023.06
2017-02-17T00:23:10.387Z,1023.07
2017-02-17T00:24:19.307Z,1023.05
2017-02-17T00:25:28.883Z,1023.02
2017-02-17T00:26:38.207Z,1023
2017-02-17T00:27:47.118Z,1023
2017-02-17T00:28:56.042Z,1023
2017-02-17T00:30:05.357Z,1022.99
2017-02-17T00:31:14.440Z,1022.96
2017-02-17T00:32:24.585Z,1022.91
2017-02-17T00:33:33.517Z,1022.92
2017-02-17T00:34:42.443Z,1022.95
2017-02-17T00:35:51.768Z,1022.97
2017-02-17T00:37:00.788Z,1022.91
2017-02-17T00:38:10.132Z,1022.88
2017-02-17T00:39:19.877Z,1022.9
2017-02-17T00:40:29.618Z,1022.93
2017-02-17T00:41:38.944Z,1022.92
2017-02-17T00:42:48.944Z,1022.91
2017-02-17T00:43:57.864Z,1022.92
2017-02-17T00:45:07.180Z,1022.92
2017-02-17T00:46:16.086Z,1022.95
2017-02-17T00:47:25.002Z,1022.89
2017-02-17T00:48:34.898Z,1022.87
2017-02-17T00:49:43.830Z,1022.86
2017-02-17T00:50:53.150Z,1022.81
2017-02-17T00:52:02.899Z,1022.87
2017-02-17T00:53:12.653Z,1022.86
2017-02-17T00:54:22.022Z,1022.84
2017-02-17T00:55:32.161Z,1022.76
2017-02-17T00:56:41.520Z,1022.79
2017-02-17T00:57:50.853Z,1022.81
2017-02-17T00:59:00.993Z,1022.78
2017-02-17T01:00:11.338Z,1022.78
2017-02-17T01:01:20.271Z,1022.75
2017-02-17T01:02:30.002Z,1022.8
2017-02-17T01:03:39.736Z,1022.73
2017-02-17T01:04:49.065Z,1022.71
2017-02-17T01:05:58.239Z,1022.7
2017-02-17T01:07:07.980Z,1022.69
2017-02-17T01:08:16.916Z,1022.71
2017-02-17T01:09:26.643Z,1022.68
2017-02-17T01:10:36.369Z,1022.71
2017-02-17T01:11:45.751Z,1022.67
2017-02-17T01:12:55.900Z,1022.67
2017-02-17T01:14:05.622Z,1022.7
2017-02-17T01:15:15.362Z,1022.67
2017-02-17T01:16:24.270Z,1022.67
2017-02-17T01:17:33.699Z,1022.67
2017-02-17T01:18:43.449Z,1022.7
2017-02-17T01:19:53.613Z,1022.67
2017-02-17T01:21:03.351Z,1022.62
2017-02-17T01:22:12.263Z,1022.61
2017-02-17T01:23:21.735Z,1022.67
2017-02-17T01:24:30.652Z,1022.67
2017-02-17T01:25:39.588Z,1022.66
2017-02-17T01:26:48.929Z,1022.6
2017-02-17T01:27:58.254Z,1022.59
2017-02-17T01:29:08.153Z,1022.63
2017-02-17T01:30:17.887Z,1022.56
2017-02-17T01:31:27.217Z,1022.55
2017-02-17T01:32:37.366Z,1022.56
2017-02-17T01:33:47.104Z,1022.53
2017-02-17T01:34:56.063Z,1022.48
2017-02-17T01:36:06.215Z,1022.43
2017-02-17T01:37:15.944Z,1022.43
2017-02-17T01:38:25.672Z,1022.45
2017-02-17T01:39:35.826Z,1022.45
2017-02-17T01:40:45.194Z,1022.42
2017-02-17T01:41:54.532Z,1022.45
2017-02-17T01:43:04.263Z,1022.42
2017-02-17T01:44:13.613Z,1022.43
2017-02-17T01:45:22.933Z,1022.46
2017-02-17T01:46:32.408Z,1022.38
2017-02-17T01:47:41.732Z,1022.41
2017-02-17T01:48:51.083Z,1022.37
2017-02-17T01:50:00.408Z,1022.37
2017-02-17T01:51:10.539Z,1022.36
2017-02-17T01:52:19.905Z,1022.3
2017-02-17T01:53:30.071Z,1022.31
2017-02-17T01:54:39.808Z,1022.32
2017-02-17T01:55:49.555Z,1022.3
2017-02-17T01:56:59.308Z,1022.28
2017-02-17T01:58:09.036Z,1022.24
2017-02-17T01:59:19.171Z,1022.2
2017-02-17T02:00:28.922Z,1022.21
2017-02-17T02:01:37.863Z,1022.21
2017-02-17T02:02:47.592Z,1022.21
2017-02-17T02:03:56.608Z,1022.19
2017-02-17T02:05:06.771Z,1022.16
2017-02-17T02:06:16.119Z,1022.17
2017-02-17T02:07:25.450Z,1022.12
2017-02-17T02:08:34.762Z,1022.13
2017-02-17T02:09:44.234Z,1022.11
2017-02-17T02:10:53.153Z,1022.1
2017-02-17T02:12:02.061Z,1021.98
2017-02-17T02:13:11.393Z,1022.09
2017-02-17T02:14:20.710Z,1022.02
2017-02-17T02:15:30.315Z,1022.05
2017-02-17T02:16:39.645Z,1021.97
2017-02-17T02:17:49.370Z,1021.95
2017-02-17T02:18:58.687Z,1021.92
2017-02-17T02:20:08.014Z,1021.98
2017-02-17T02:21:17.329Z,1021.94
2017-02-17T02:22:26.251Z,1021.89
2017-02-17T02:23:36.384Z,1021.89
2017-02-17T02:24:46.524Z,1021.88
2017-02-17T02:25:55.842Z,1021.86
2017-02-17T02:27:05.370Z,1021.84
2017-02-17T02:28:15.106Z,1021.84
2017-02-17T02:29:24.426Z,1021.85
2017-02-17T02:30:33.788Z,1021.83
2017-02-17T02:31:43.941Z,1021.82
2017-02-17T02:32:54.143Z,1021.81
2017-02-17T02:34:03.876Z,1021.8
2017-02-17T02:35:13.187Z,1021.8
2017-02-17T02:36:23.337Z,1021.81
2017-02-17T02:37:32.682Z,1021.83
2017-02-17T02:38:42.526Z,1021.81
2017-02-17T02:39:52.281Z,1021.79
2017-02-17T02:41:01.221Z,1021.73
2017-02-17T02:42:10.140Z,1021.71
2017-02-17T02:43:19.861Z,1021.66
2017-02-17T02:44:29.714Z,1021.66
2017-02-17T02:45:39.070Z,1021.66
2017-02-17T02:46:48.800Z,1021.69
2017-02-17T02:47:58.119Z,1021.58
2017-02-17T02:49:07.854Z,1021.66
2017-02-17T02:50:17.992Z,1021.6
2017-02-17T02:51:26.929Z,1021.56
2017-02-17T02:52:35.855Z,1021.55
2017-02-17T02:53:45.594Z,1021.51
2017-02-17T02:54:54.907Z,1021.53
2017-02-17T02:56:04.367Z,1021.55
2017-02-17T02:57:13.297Z,1021.5
2017-02-17T02:58:23.053Z,1021.56
2017-02-17T02:59:33.181Z,1021.48
2017-02-17T03:00:42.512Z,1021.49
2017-02-17T03:01:52.426Z,1021.48
2017-02-17T03:03:02.169Z,1021.46
2017-02-17T03:04:11.502Z,1021.46
2017-02-17T03:05:20.841Z,1021.47
2017-02-17T03:06:30.175Z,1021.4
2017-02-17T03:07:39.676Z,1021.37
2017-02-17T03:08:49.014Z,1021.31
2017-02-17T03:09:59.168Z,1021.33
2017-02-17T03:11:08.513Z,1021.34
2017-02-17T03:12:17.844Z,1021.38
2017-02-17T03:13:27.722Z,1021.31
2017-02-17T03:14:37.500Z,1021.39
2017-02-17T03:15:47.239Z,1021.3
2017-02-17T03:16:56.567Z,1021.31
2017-02-17T03:18:05.479Z,1021.36
2017-02-17T03:19:15.863Z,1021.28
2017-02-17T03:20:25.194Z,1021.33
2017-02-17T03:21:34.918Z,1021.26
2017-02-17T03:22:44.252Z,1021.26
2017-02-17T03:23:54.421Z,1021.26
2017-02-17T03:25:04.738Z,1021.14
2017-02-17T03:26:14.073Z,1021.14
2017-02-17T03:27:23.409Z,1021.19
2017-02-17T03:28:32.341Z,1021.15
2017-02-17T03:29:42.081Z,1021.16
2017-02-17T03:30:51.196Z,1021.16
2017-02-17T03:32:00.512Z,1021.16
2017-02-17T03:33:10.258Z,1021.2
2017-02-17T03:34:20.025Z,1021.23
2017-02-17T03:35:29.352Z,1021.18
2017-02-17T03:36:38.466Z,1021.17
2017-02-17T03:37:48.220Z,1021.18
2017-02-17T03:38:57.972Z,1021.25
2017-02-17T03:40:07.294Z,1021.2
2017-02-17T03:41:16.617Z,1021.18
2017-02-17T03:42:25.651Z,1021.16
2017-02-17T03:43:34.979Z,1021.13
2017-02-17T03:44:45.113Z,1021.17
2017-02-17T03:45:54.843Z,1021.15
2017-02-17T03:47:04.202Z,1021.18
2017-02-17T03:48:14.104Z,1021.15
2017-02-17T03:49:23.440Z,1021.1
2017-02-17T03:50:32.766Z,1021.12
2017-02-17T03:51:41.692Z,1021.12
2017-02-17T03:52:50.608Z,1021.13
2017-02-17T03:53:59.739Z,1021.1
2017-02-17T03:55:09.072Z,1021.07
2017-02-17T03:56:18.404Z,1021.07
2017-02-17T03:57:27.727Z,1021.06
2017-02-17T03:58:36.675Z,1021.03
2017-02-17T03:59:47.436Z,1021.05
2017-02-17T04:00:57.187Z,1020.97
2017-02-17T04:02:06.917Z,1021.03
2017-02-17T04:03:15.826Z,1021.03
2017-02-17T04:04:25.559Z,1021.01
2017-02-17T04:05:35.035Z,1020.99
2017-02-17T04:06:44.764Z,1020.96
2017-02-17T04:07:54.091Z,1020.98
2017-02-17T04:09:03.431Z,1020.95
2017-02-17T04:10:12.344Z,1020.98
2017-02-17T04:11:21.328Z,1020.95
2017-02-17T04:12:30.656Z,1021
2017-02-17T04:13:39.973Z,1021
2017-02-17T04:14:49.695Z,1020.98
2017-02-17T04:15:59.016Z,1020.96
2017-02-17T04:17:08.915Z,1020.98
2017-02-17T04:18:18.233Z,1020.94
2017-02-17T04:19:27.560Z,1020.91
2017-02-17T04:20:37.297Z,1020.91
2017-02-17T04:21:46.622Z,1020.9
2017-02-17T04:22:56.004Z,1020.85
2017-02-17T04:24:05.740Z,1020.85
2017-02-17T04:25:15.057Z,1020.83
2017-02-17T04:26:23.983Z,1020.84
2017-02-17T04:27:33.332Z,1020.8
2017-02-17T04:28:42.800Z,1020.8
2017-02-17T04:29:52.541Z,1020.77
2017-02-17T04:31:02.267Z,1020.71
2017-02-17T04:32:11.191Z,1020.66
2017-02-17T04:33:20.097Z,1020.64
2017-02-17T04:34:29.067Z,1020.64
2017-02-17T04:35:38.407Z,1020.67
2017-02-17T04:36:48.951Z,1020.71
2017-02-17T04:37:58.683Z,1020.71
2017-02-17T04:39:07.624Z,1020.74
2017-02-17T04:40:17.439Z,1020.75
2017-02-17T04:41:26.783Z,1020.72
2017-02-17T04:42:35.702Z,1020.66
2017-02-17T04:43:45.444Z,1020.69
2017-02-17T04:44:54.763Z,1020.65
2017-02-17T04:46:04.483Z,1020.65
2017-02-17T04:47:14.623Z,1020.63
2017-02-17T04:48:23.948Z,1020.62
2017-02-17T04:49:32.897Z,1020.61
2017-02-17T04:50:43.101Z,1020.62
2017-02-17T04:51:53.041Z,1020.57
2017-02-17T04:53:02.763Z,1020.58
2017-02-17T04:54:11.674Z,1020.59
2017-02-17T04:55:20.579Z,1020.57
2017-02-17T04:56:29.899Z,1020.57
2017-02-17T04:57:39.324Z,1020.57
2017-02-17T04:58:48.648Z,1020.55
2017-02-17T04:59:57.995Z,1020.54
2017-02-17T05:01:06.937Z,1020.51
2017-02-17T05:02:15.861Z,1020.53
2017-02-17T05:03:25.391Z,1020.5
2017-02-17T05:04:35.110Z,1020.52
2017-02-17T05:05:44.423Z,1020.53
2017-02-17T05:06:53.741Z,1020.51
2017-02-17T05:08:03.066Z,1020.5
2017-02-17T05:09:12.847Z,1020.48
2017-02-17T05:10:22.171Z,1020.47
2017-02-17T05:11:31.496Z,1020.45
2017-02-17T05:12:41.226Z,1020.42
2017-02-17T05:13:50.966Z,1020.36
2017-02-17T05:15:00.035Z,1020.38
2017-02-17T05:16:09.358Z,1020.33
2017-02-17T05:17:19.494Z,1020.35
2017-02-17T05:18:28.825Z,1020.34
2017-02-17T05:19:38.152Z,1020.33
2017-02-17T05:20:47.533Z,1020.32
2017-02-17T05:21:56.874Z,1020.25
2017-02-17T05:23:07.039Z,1020.31
2017-02-17T05:24:16.771Z,1020.22
2017-02-17T05:25:25.698Z,1020.23
2017-02-17T05:26:35.592Z,1020.31
2017-02-17T05:27:44.927Z,1020.32
2017-02-17T05:28:54.274Z,1020.27
2017-02-17T05:30:03.211Z,1020.29
2017-02-17T05:31:12.146Z,1020.29
2017-02-17T05:32:21.628Z,1020.26
2017-02-17T05:33:30.955Z,1020.24
2017-02-17T05:34:40.691Z,1020.25
2017-02-17T05:35:50.422Z,1020.24
2017-02-17T05:36:59.754Z,1020.27
2017-02-17T05:38:08.823Z,1020.26
2017-02-17T05:39:18.561Z,1020.22
2017-02-17T05:40:28.692Z,1020.19
2017-02-17T05:41:38.009Z,1020.2
2017-02-17T05:42:46.921Z,1020.17
2017-02-17T05:43:56.924Z,1020.16
2017-02-17T05:45:06.650Z,1020.08
2017-02-17T05:46:16.371Z,1020.14
2017-02-17T05:47:25.698Z,1020.11
2017-02-17T05:48:35.448Z,1020.13
2017-02-17T05:49:44.768Z,1020.15
2017-02-17T05:50:54.916Z,1020.13
2017-02-17T05:52:04.247Z,1020.11
2017-02-17T05:53:13.579Z,1020.11
2017-02-17T05:54:22.914Z,1020.09
2017-02-17T05:55:31.904Z,1020.11
2017-02-17T05:56:41.645Z,1020.09
2017-02-17T05:57:50.966Z,1020.09
2017-02-17T05:59:00.286Z,1020.15
2017-02-17T06:00:09.644Z,1020.18
2017-02-17T06:01:19.049Z,1020.25
2017-02-17T06:02:29.193Z,1020.25
2017-02-17T06:03:38.575Z,1020.22
2017-02-17T06:04:47.513Z,1020.28
2017-02-17T06:05:56.850Z,1020.25
2017-02-17T06:07:06.313Z,1020.29
2017-02-17T06:08:15.219Z,1020.32
2017-02-17T06:09:24.123Z,1020.28
2017-02-17T06:10:33.059Z,1020.29
2017-02-17T06:11:42.800Z,1020.24
2017-02-17T06:12:51.939Z,1020.26
2017-02-17T06:14:01.266Z,1020.2
2017-02-17T06:15:10.199Z,1020.28
2017-02-17T06:16:19.953Z,1020.23
2017-02-17T06:17:29.299Z,1020.23
2017-02-17T06:18:38.475Z,1020.22
2017-02-17T06:19:48.212Z,1020.23
2017-02-17T06:20:57.562Z,1020.25
2017-02-17T06:22:07.307Z,1020.28
2017-02-17T06:23:17.051Z,1020.26
2017-02-17T06:24:26.428Z,1020.28
2017-02-17T06:25:35.761Z,1020.3
2017-02-17T06:26:45.147Z,1020.33
2017-02-17T06:27:55.281Z,1020.31
2017-02-17T06:29:04.215Z,1020.33
2017-02-17T06:30:13.562Z,1020.3
2017-02-17T06:31:22.881Z,1020.33
2017-02-17T06:32:32.608Z,1020.33
2017-02-17T06:33:41.517Z,1020.31
2017-02-17T06:34:50.864Z,1020.35
2017-02-17T06:35:59.808Z,1020.28
2017-02-17T06:37:09.132Z,1020.34
2017-02-17T06:38:18.042Z,1020.29
2017-02-17T06:39:26.966Z,1020.3
2017-02-17T06:40:36.712Z,1020.29
2017-02-17T06:41:46.033Z,1020.32
2017-02-17T06:42:55.358Z,1020.33
2017-02-17T06:44:04.676Z,1020.31
2017-02-17T06:45:14.007Z,1020.29
2017-02-17T06:46:23.735Z,1020.29
2017-02-17T06:47:32.682Z,1020.3
2017-02-17T06:48:41.626Z,1020.25
2017-02-17T06:49:50.956Z,1020.28
2017-02-17T06:51:00.842Z,1020.28
2017-02-17T06:52:10.580Z,1020.3
2017-02-17T06:53:19.925Z,1020.31
2017-02-17T06:54:28.871Z,1020.26
2017-02-17T06:55:38.649Z,1020.28
2017-02-17T06:56:47.592Z,1020.24
2017-02-17T06:57:56.520Z,1020.28
2017-02-17T06:59:05.464Z,1020.29
2017-02-17T07:00:14.781Z,1020.28
2017-02-17T07:01:23.720Z,1020.28
2017-02-17T07:02:33.462Z,1020.25
2017-02-17T07:03:43.199Z,1020.31
2017-02-17T07:04:52.561Z,1020.28
2017-02-17T07:06:02.726Z,1020.3
2017-02-17T07:07:12.119Z,1020.29
2017-02-17T07:08:21.871Z,1020.26
2017-02-17T07:09:31.221Z,1020.31
2017-02-17T07:10:40.141Z,1020.28
2017-02-17T07:11:49.905Z,1020.3
2017-02-17T07:12:58.925Z,1020.34
2017-02-17T07:14:08.667Z,1020.37
2017-02-17T07:15:17.985Z,1020.37
2017-02-17T07:16:27.731Z,1020.34
2017-02-17T07:17:38.293Z,1020.35
2017-02-17T07:18:47.699Z,1020.36
2017-02-17T07:19:57.047Z,1020.32
2017-02-17T07:21:06.790Z,1020.32
2017-02-17T07:22:15.701Z,1020.34
2017-02-17T07:23:25.035Z,1020.35
2017-02-17T07:24:35.176Z,1020.38
2017-02-17T07:25:44.093Z,1020.35
2017-02-17T07:26:53.861Z,1020.36
2017-02-17T07:28:02.770Z,1020.38
2017-02-17T07:29:12.112Z,1020.39
2017-02-17T07:30:22.501Z,1020.39
2017-02-17T07:31:31.843Z,1020.42
2017-02-17T07:32:41.591Z,1020.4
2017-02-17T07:33:50.521Z,1020.45
2017-02-17T07:35:01.071Z,1020.46
2017-02-17T07:36:10.873Z,1020.5
2017-02-17T07:37:20.171Z,1020.44
2017-02-17T07:38:29.531Z,1020.48
2017-02-17T07:39:39.188Z,1020.47
2017-02-17T07:40:48.535Z,1020.45
2017-02-17T07:41:57.962Z,1020.47
2017-02-17T07:43:08.095Z,1020.48
2017-02-17T07:44:17.435Z,1020.41
2017-02-17T07:45:26.347Z,1020.44
2017-02-17T07:46:35.681Z,1020.41
2017-02-17T07:47:45.072Z,1020.41
2017-02-17T07:48:54.399Z,1020.36
2017-02-17T07:50:04.548Z,1020.34
2017-02-17T07:51:13.486Z,1020.41
2017-02-17T07:52:22.515Z,1020.39
2017-02-17T07:53:31.995Z,1020.4
2017-02-17T07:54:40.917Z,1020.39
2017-02-17T07:55:50.272Z,1020.39
2017-02-17T07:56:59.202Z,1020.38
2017-02-17T07:58:09.370Z,1020.41
2017-02-17T07:59:18.442Z,1020.39
2017-02-17T08:00:28.182Z,1020.39
2017-02-17T08:01:37.518Z,1020.41
2017-02-17T08:02:47.259Z,1020.43
2017-02-17T08:03:56.990Z,1020.44
2017-02-17T08:05:07.468Z,1020.49
2017-02-17T08:06:17.200Z,1020.43
2017-02-17T08:07:26.515Z,1020.47
2017-02-17T08:08:36.247Z,1020.53
2017-02-17T08:09:45.172Z,1020.43
2017-02-17T08:10:54.962Z,1020.52
2017-02-17T08:12:05.131Z,1020.51
2017-02-17T08:13:14.043Z,1020.56
2017-02-17T08:14:23.367Z,1020.54
2017-02-17T08:15:32.699Z,1020.5
2017-02-17T08:16:41.687Z,1020.55
2017-02-17T08:17:50.600Z,1020.53
2017-02-17T08:18:59.942Z,1020.53
2017-02-17T08:20:10.087Z,1020.55
2017-02-17T08:21:19.001Z,1020.51
2017-02-17T08:22:28.927Z,1020.55
2017-02-17T08:23:38.249Z,1020.53
2017-02-17T08:24:47.576Z,1020.52
2017-02-17T08:25:57.298Z,1020.5
2017-02-17T08:27:06.650Z,1020.53
2017-02-17T08:28:15.743Z,1020.5
2017-02-17T08:29:25.500Z,1020.53
2017-02-17T08:30:35.635Z,1020.46
2017-02-17T08:31:44.950Z,1020.51
2017-02-17T08:32:54.302Z,1020.5
2017-02-17T08:34:04.182Z,1020.55
2017-02-17T08:35:13.922Z,1020.5
2017-02-17T08:36:23.243Z,1020.52
2017-02-17T08:37:32.563Z,1020.45
2017-02-17T08:38:41.898Z,1020.52
2017-02-17T08:39:51.279Z,1020.49
2017-02-17T08:41:00.226Z,1020.52
2017-02-17T08:42:10.359Z,1020.46
2017-02-17T08:43:19.288Z,1020.54
2017-02-17T08:44:28.202Z,1020.52
2017-02-17T08:45:37.801Z,1020.48
2017-02-17T08:46:47.164Z,1020.53
2017-02-17T08:47:56.489Z,1020.57
2017-02-17T08:49:05.817Z,1020.64
2017-02-17T08:50:15.568Z,1020.59
2017-02-17T08:51:25.378Z,1020.58
2017-02-17T08:52:35.531Z,1020.58
2017-02-17T08:53:45.253Z,1020.58
2017-02-17T08:54:54.993Z,1020.6
2017-02-17T08:56:04.337Z,1020.63
2017-02-17T08:57:13.723Z,1020.61
2017-02-17T08:58:23.859Z,1020.65
2017-02-17T08:59:33.178Z,1020.66
2017-02-17T09:00:42.502Z,1020.69
2017-02-17T09:01:51.419Z,1020.64
2017-02-17T09:03:00.795Z,1020.64
2017-02-17T09:04:10.143Z,1020.62
2017-02-17T09:05:19.062Z,1020.65
2017-02-17T09:06:28.376Z,1020.61
2017-02-17T09:07:37.308Z,1020.7
2017-02-17T09:08:46.639Z,1020.65
2017-02-17T09:09:55.973Z,1020.72
2017-02-17T09:11:05.316Z,1020.71
2017-02-17T09:12:15.064Z,1020.77
2017-02-17T09:13:24.400Z,1020.83
2017-02-17T09:14:34.290Z,1020.79
2017-02-17T09:15:43.217Z,1020.78
2017-02-17T09:16:52.534Z,1020.7
2017-02-17T09:18:02.280Z,1020.73
2017-02-17T09:19:11.189Z,1020.7
2017-02-17T09:20:20.911Z,1020.73
2017-02-17T09:21:30.686Z,1020.73
2017-02-17T09:22:40.451Z,1020.73
2017-02-17T09:23:50.182Z,1020.8
2017-02-17T09:24:59.940Z,1020.78
2017-02-17T09:26:09.808Z,1020.83
2017-02-17T09:27:18.759Z,1020.91
2017-02-17T09:28:27.685Z,1020.87
2017-02-17T09:29:37.438Z,1020.89
2017-02-17T09:30:46.764Z,1020.91
2017-02-17T09:31:56.488Z,1020.9
2017-02-17T09:33:05.816Z,1021
2017-02-17T09:34:15.541Z,1020.92
2017-02-17T09:35:25.269Z,1020.9
2017-02-17T09:36:35.016Z,1020.9
2017-02-17T09:37:44.016Z,1020.87
2017-02-17T09:38:52.955Z,1020.84
2017-02-17T09:40:02.708Z,1020.88
2017-02-17T09:41:12.051Z,1020.86
2017-02-17T09:42:21.383Z,1020.94
2017-02-17T09:43:31.983Z,1020.91
2017-02-17T09:44:40.904Z,1020.91
2017-02-17T09:45:50.632Z,1020.93
2017-02-17T09:47:00.370Z,1020.95
2017-02-17T09:48:10.100Z,1020.99
2017-02-17T09:49:19.519Z,1021.01
2017-02-17T09:50:28.842Z,1021.02
2017-02-17T09:51:38.185Z,1020.99
2017-02-17T09:52:47.131Z,1020.99
2017-02-17T09:53:56.919Z,1021.01
2017-02-17T09:55:07.059Z,1020.98
2017-02-17T09:56:16.391Z,1020.96
2017-02-17T09:57:25.724Z,1020.97
2017-02-17T09:58:35.860Z,1021.05
2017-02-17T09:59:45.999Z,1021.03
2017-02-17T10:00:55.996Z,1021.06
2017-02-17T10:02:06.161Z,1021.03
2017-02-17T10:03:15.078Z,1021.04
2017-02-17T10:04:25.212Z,1021.07
2017-02-17T10:05:34.559Z,1021.04
2017-02-17T10:06:44.852Z,1021.05
2017-02-17T10:07:53.794Z,1021.11
2017-02-17T10:09:03.125Z,1021.09
2017-02-17T10:10:12.442Z,1021.08
2017-02-17T10:11:22.187Z,1021.13
2017-02-17T10:12:31.800Z,1021.15
2017-02-17T10:13:41.145Z,1021.17
2017-02-17T10:14:50.928Z,1021.19
2017-02-17T10:16:01.075Z,1021.13
2017-02-17T10:17:10.440Z,1021.12
2017-02-17T10:18:19.907Z,1021.21
2017-02-17T10:19:28.841Z,1021.23
2017-02-17T10:20:38.573Z,1021.19
2017-02-17T10:21:47.903Z,1021.23
2017-02-17T10:22:56.871Z,1021.27
2017-02-17T10:24:05.890Z,1021.3
2017-02-17T10:25:14.827Z,1021.27
2017-02-17T10:26:23.745Z,1021.23
2017-02-17T10:27:33.105Z,1021.29
2017-02-17T10:28:42.011Z,1021.31
2017-02-17T10:29:51.192Z,1021.4
2017-02-17T10:31:00.112Z,1021.36
2017-02-17T10:32:09.444Z,1021.39
2017-02-17T10:33:18.382Z,1021.34
2017-02-17T10:34:28.124Z,1021.43
2017-02-17T10:35:38.789Z,1021.44
2017-02-17T10:36:48.926Z,1021.41
2017-02-17T10:37:58.693Z,1021.4
2017-02-17T10:39:08.422Z,1021.44
2017-02-17T10:40:17.763Z,1021.46
2017-02-17T10:41:27.557Z,1021.46
2017-02-17T10:42:36.502Z,1021.4
2017-02-17T10:43:45.425Z,1021.39
2017-02-17T10:44:54.758Z,1021.43
2017-02-17T10:46:04.504Z,1021.43
2017-02-17T10:47:13.455Z,1021.51
2017-02-17T10:48:22.803Z,1021.41
2017-02-17T10:49:32.553Z,1021.49
2017-02-17T10:50:41.879Z,1021.52
2017-02-17T10:51:51.198Z,1021.48
2017-02-17T10:53:00.219Z,1021.46
2017-02-17T10:54:09.576Z,1021.54
2017-02-17T10:55:18.519Z,1021.51
2017-02-17T10:56:27.447Z,1021.53
2017-02-17T10:57:37.190Z,1021.51
2017-02-17T10:58:46.759Z,1021.56
2017-02-17T10:59:56.104Z,1021.56
2017-02-17T11:01:05.424Z,1021.61
2017-02-17T11:02:14.770Z,1021.61
2017-02-17T11:03:23.701Z,1021.62
2017-02-17T11:04:33.739Z,1021.65
2017-02-17T11:05:43.469Z,1021.66
2017-02-17T11:06:52.812Z,1021.69
2017-02-17T11:08:02.541Z,1021.67
2017-02-17T11:09:11.465Z,1021.64
2017-02-17T11:10:21.765Z,1021.61
2017-02-17T11:11:31.090Z,1021.64
2017-02-17T11:12:40.438Z,1021.62
2017-02-17T11:13:50.173Z,1021.64
2017-02-17T11:14:59.912Z,1021.64
2017-02-17T11:16:09.238Z,1021.63
2017-02-17T11:17:18.975Z,1021.67
2017-02-17T11:18:29.536Z,1021.58
2017-02-17T11:19:38.881Z,1021.61
2017-02-17T11:20:48.209Z,1021.6
2017-02-17T11:21:58.188Z,1021.61
2017-02-17T11:23:07.928Z,1021.61
2017-02-17T11:24:16.856Z,1021.57
2017-02-17T11:25:26.203Z,1021.63
2017-02-17T11:26:35.537Z,1021.68
2017-02-17T11:27:45.032Z,1021.61
2017-02-17T11:28:54.361Z,1021.7
2017-02-17T11:30:04.084Z,1021.63
2017-02-17T11:31:13.406Z,1021.68
2017-02-17T11:32:22.321Z,1021.66
2017-02-17T11:33:32.163Z,1021.65
2017-02-17T11:34:41.092Z,1021.69
2017-02-17T11:35:50.414Z,1021.68
2017-02-17T11:36:59.775Z,1021.68
2017-02-17T11:38:09.915Z,1021.67
2017-02-17T11:39:19.304Z,1021.66
2017-02-17T11:40:29.057Z,1021.67
2017-02-17T11:41:37.972Z,1021.69
2017-02-17T11:42:47.313Z,1021.75
2017-02-17T11:43:57.053Z,1021.68
2017-02-17T11:45:06.579Z,1021.69
2017-02-17T11:46:15.920Z,1021.65
2017-02-17T11:47:25.655Z,1021.66
2017-02-17T11:48:35.400Z,1021.69
2017-02-17T11:49:45.154Z,1021.66
2017-02-17T11:50:55.045Z,1021.67
2017-02-17T11:52:03.967Z,1021.67
2017-02-17T11:53:13.307Z,1021.68
2017-02-17T11:54:22.237Z,1021.71
2017-02-17T11:55:31.172Z,1021.71
2017-02-17T11:56:40.551Z,1021.74
2017-02-17T11:57:50.308Z,1021.75
2017-02-17T11:58:59.639Z,1021.72
2017-02-17T12:00:09.371Z,1021.76
2017-02-17T12:01:18.294Z,1021.8
2017-02-17T12:02:27.270Z,1021.75
2017-02-17T12:03:37.001Z,1021.76
2017-02-17T12:04:45.933Z,1021.75
2017-02-17T12:05:55.258Z,1021.75
2017-02-17T12:07:04.998Z,1021.78
2017-02-17T12:08:14.809Z,1021.79
2017-02-17T12:09:24.539Z,1021.81
2017-02-17T12:10:33.865Z,1021.79
2017-02-17T12:11:44.445Z,1021.78
2017-02-17T12:12:53.775Z,1021.77
2017-02-17T12:14:02.861Z,1021.79
2017-02-17T12:15:11.779Z,1021.79
2017-02-17T12:16:21.114Z,1021.82
2017-02-17T12:17:30.034Z,1021.76
2017-02-17T12:18:39.366Z,1021.79
2017-02-17T12:19:48.945Z,1021.76
2017-02-17T12:20:58.276Z,1021.8
2017-02-17T12:22:07.605Z,1021.81
2017-02-17T12:23:17.353Z,1021.74
2017-02-17T12:24:26.277Z,1021.8
2017-02-17T12:25:35.252Z,1021.73
2017-02-17T12:26:44.605Z,1021.7
2017-02-17T12:27:53.942Z,1021.79
2017-02-17T12:29:03.260Z,1021.72
2017-02-17T12:30:12.209Z,1021.77
2017-02-17T12:31:21.675Z,1021.74
2017-02-17T12:32:31.422Z,1021.75
2017-02-17T12:33:41.163Z,1021.73
2017-02-17T12:34:50.489Z,1021.74
2017-02-17T12:36:00.217Z,1021.71
2017-02-17T12:37:10.099Z,1021.74
2017-02-17T12:38:19.836Z,1021.72
2017-02-17T12:39:29.593Z,1021.74
2017-02-17T12:40:38.516Z,1021.67
2017-02-17T12:41:48.275Z,1021.68
2017-02-17T12:42:58.596Z,1021.67
2017-02-17T12:44:08.324Z,1021.64
2017-02-17T12:45:17.640Z,1021.63
2017-02-17T12:46:26.972Z,1021.63
2017-02-17T12:47:36.297Z,1021.65
2017-02-17T12:48:45.666Z,1021.67
2017-02-17T12:49:55.395Z,1021.74
2017-02-17T12:51:05.136Z,1021.77
2017-02-17T12:52:14.911Z,1021.69
2017-02-17T12:53:24.240Z,1021.66
2017-02-17T12:54:33.751Z,1021.7
2017-02-17T12:55:43.069Z,1021.72
2017-02-17T12:56:52.399Z,1021.75
2017-02-17T12:58:02.128Z,1021.69
2017-02-17T12:59:11.474Z,1021.76
2017-02-17T13:00:21.559Z,1021.76
2017-02-17T13:01:30.918Z,1021.82
2017-02-17T13:02:41.071Z,1021.82
2017-02-17T13:03:51.274Z,1021.83
2017-02-17T13:05:00.616Z,1021.83
2017-02-17T13:06:10.773Z,1021.82
2017-02-17T13:07:20.939Z,1021.83
2017-02-17T13:08:30.707Z,1021.82
2017-02-17T13:09:40.047Z,1021.82
2017-02-17T13:10:48.973Z,1021.9
2017-02-17T13:11:58.863Z,1021.87
2017-02-17T13:13:08.224Z,1021.84
2017-02-17T13:14:18.070Z,1021.8
2017-02-17T13:15:27.007Z,1021.79
2017-02-17T13:16:35.921Z,1021.84
2017-02-17T13:17:45.765Z,1021.81
2017-02-17T13:18:54.679Z,1021.84
2017-02-17T13:20:04.437Z,1021.9
2017-02-17T13:21:13.774Z,1021.86
2017-02-17T13:22:23.537Z,1021.88
2017-02-17T13:23:32.969Z,1021.9
2017-02-17T13:24:42.289Z,1021.88
2017-02-17T13:25:51.624Z,1021.9
2017-02-17T13:27:00.959Z,1021.97
2017-02-17T13:28:09.874Z,1021.96
2017-02-17T13:29:19.459Z,1022.04
2017-02-17T13:30:28.374Z,1022
2017-02-17T13:31:37.712Z,1021.97
2017-02-17T13:32:47.465Z,1022.02
2017-02-17T13:33:56.815Z,1022.03
2017-02-17T13:35:07.324Z,1022
2017-02-17T13:36:17.101Z,1022.01
2017-02-17T13:37:27.270Z,1022.01
2017-02-17T13:38:36.607Z,1022.02
2017-02-17T13:39:45.532Z,1022.05
2017-02-17T13:40:55.016Z,1022.01
2017-02-17T13:42:03.936Z,1022.03
2017-02-17T13:43:13.713Z,1022.1
2017-02-17T13:44:23.056Z,1022.04
2017-02-17T13:45:32.783Z,1022.1
2017-02-17T13:46:43.115Z,1022.08
2017-02-17T13:47:53.266Z,1022.15
2017-02-17T13:49:02.748Z,1022.12
2017-02-17T13:50:13.473Z,1022.15
2017-02-17T13:51:23.299Z,1022.14
2017-02-17T13:52:32.772Z,1022.14
2017-02-17T13:53:42.143Z,1022.12
2017-02-17T13:54:51.891Z,1022.17
2017-02-17T13:56:01.226Z,1022.2
2017-02-17T13:57:10.147Z,1022.17
2017-02-17T13:58:19.324Z,1022.19
2017-02-17T13:59:29.495Z,1022.14
2017-02-17T14:00:39.282Z,1022.2
2017-02-17T14:01:48.245Z,1022.2
2017-02-17T14:02:57.986Z,1022.24